createdAt,value
2023-05-04T00:02:47.934Z,38.50
2023-05-04T00:08:13.899Z,38.59
2023-05-04T00:13:06.405Z,38.90
2023-05-04T00:18:06.304Z,39.08
2023-05-04T00:23:06.205Z,39.17
2023-05-04T00:28:06.117Z,39.27
2023-05-04T00:33:06.107Z,39.33
2023-05-04T00:38:06.012Z,39.42
2023-05-04T00:43:05.926Z,39.52
2023-05-04T00:48:05.887Z,39.59
2023-05-04T00:53:05.816Z,39.69
2023-05-04T00:58:05.733Z,39.84
2023-05-04T01:03:05.740Z,40.00
2023-05-04T01:08:05.593Z,40.23
2023-05-04T01:13:05.618Z,40.51
2023-05-04T01:18:05.535Z,40.70
2023-05-04T01:23:05.427Z,40.90
2023-05-04T01:28:05.364Z,41.14
2023-05-04T01:33:05.329Z,41.37
2023-05-04T01:38:05.195Z,41.59
2023-05-04T01:43:05.174Z,41.78
2023-05-04T01:48:05.084Z,41.97
2023-05-04T01:53:04.990Z,42.13
2023-05-04T01:58:04.936Z,42.33
2023-05-04T02:03:04.944Z,42.53
2023-05-04T02:08:04.812Z,42.66
2023-05-04T02:13:04.788Z,42.85
2023-05-04T02:18:04.701Z,43.06
2023-05-04T02:23:04.576Z,43.17
2023-05-04T02:28:04.557Z,43.31
2023-05-04T02:33:04.610Z,43.38
2023-05-04T02:38:04.382Z,43.57
2023-05-04T02:43:04.342Z,43.77
2023-05-04T02:48:04.295Z,43.92
2023-05-04T02:53:04.216Z,44.09
2023-05-04T02:58:04.136Z,44.27
2023-05-04T03:03:04.138Z,44.45
2023-05-04T03:08:04.000Z,44.61
2023-05-04T03:13:04.063Z,44.74
2023-05-04T03:18:03.892Z,44.89
2023-05-04T03:23:03.845Z,45.09
2023-05-04T03:28:03.788Z,45.26
2023-05-04T03:33:03.761Z,45.45
2023-05-04T03:38:03.641Z,45.65
2023-05-04T03:43:03.587Z,45.76
2023-05-04T03:48:03.495Z,45.81
2023-05-04T03:53:03.429Z,45.93
2023-05-04T03:58:03.362Z,46.05
2023-05-04T04:03:03.371Z,46.17
2023-05-04T04:08:03.239Z,46.27
2023-05-04T04:13:03.180Z,46.39
2023-05-04T04:18:17.668Z,46.25
2023-05-04T04:23:10.066Z,46.43
2023-05-04T04:28:10.006Z,46.51
2023-05-04T04:33:10.091Z,46.57
2023-05-04T04:38:09.895Z,46.62
2023-05-04T04:43:09.777Z,46.61
2023-05-04T04:48:09.795Z,46.58
2023-05-04T04:53:09.676Z,46.57
2023-05-04T04:58:09.613Z,46.49
2023-05-04T05:03:09.617Z,46.38
2023-05-04T05:08:09.472Z,46.14
2023-05-04T05:13:09.437Z,45.94
2023-05-04T05:18:09.512Z,45.70
2023-05-04T05:23:09.257Z,45.46
2023-05-04T05:28:09.193Z,45.31
2023-05-04T05:33:09.147Z,45.19
2023-05-04T05:38:09.112Z,44.94
2023-05-04T05:43:08.984Z,44.77
2023-05-04T05:48:08.982Z,44.56
2023-05-04T05:53:08.865Z,44.42
2023-05-04T05:58:08.821Z,44.28
2023-05-04T06:03:08.799Z,44.06
2023-05-04T06:08:08.683Z,43.70
2023-05-04T06:13:08.658Z,43.27
2023-05-04T06:18:08.614Z,34.83
2023-05-04T06:23:08.446Z,25.82
2023-05-04T06:28:08.421Z,21.35
2023-05-04T06:33:08.385Z,20.39
2023-05-04T06:38:08.642Z,21.34
2023-05-04T06:43:08.199Z,23.64
2023-05-04T06:48:08.206Z,22.22
2023-05-04T06:53:08.078Z,23.56
2023-05-04T06:58:08.036Z,23.56
2023-05-04T07:03:08.043Z,22.99
2023-05-04T07:08:07.938Z,23.92
2023-05-04T07:13:07.881Z,23.61
2023-05-04T07:18:07.803Z,26.06
2023-05-04T07:23:07.687Z,26.35
2023-05-04T07:28:07.649Z,26.72
2023-05-04T07:33:07.548Z,26.43
2023-05-04T07:38:07.538Z,26.54
2023-05-04T07:43:07.446Z,26.73
2023-05-04T07:48:07.408Z,26.01
2023-05-04T07:53:07.283Z,25.22
2023-05-04T07:58:07.274Z,23.70
2023-05-04T08:03:07.160Z,23.67
2023-05-04T08:08:07.297Z,22.86
2023-05-04T08:13:07.027Z,22.12
2023-05-04T08:18:07.001Z,22.15
2023-05-04T08:23:06.908Z,22.79
2023-05-04T08:28:06.823Z,22.75
2023-05-04T08:33:06.794Z,22.74
2023-05-04T08:38:06.715Z,22.88
2023-05-04T08:43:06.623Z,23.08
2023-05-04T08:48:06.578Z,22.64
2023-05-04T08:53:06.512Z,21.98
2023-05-04T08:58:06.535Z,22.03
2023-05-04T09:03:06.426Z,21.50
2023-05-04T09:08:06.382Z,21.24
2023-05-04T09:13:06.286Z,20.81
2023-05-04T09:18:06.297Z,20.71
2023-05-04T09:23:06.117Z,20.45
2023-05-04T09:28:06.082Z,19.98
2023-05-04T09:33:06.031Z,19.16
2023-05-04T09:38:05.968Z,18.82
2023-05-04T09:43:05.858Z,17.71
2023-05-04T09:48:05.871Z,17.20
2023-05-04T09:53:05.761Z,16.74
2023-05-04T09:58:05.681Z,16.39
2023-05-04T10:03:05.608Z,16.69
2023-05-04T10:08:05.560Z,16.63
2023-05-04T10:13:05.534Z,16.40
2023-05-04T10:18:05.425Z,15.82
2023-05-04T10:23:05.350Z,16.16
2023-05-04T10:28:05.291Z,16.44
2023-05-04T10:33:05.248Z,16.33
2023-05-04T10:38:05.173Z,16.67
2023-05-04T10:43:05.084Z,15.83
2023-05-04T10:48:05.178Z,15.55
2023-05-04T10:53:05.249Z,15.38
2023-05-04T10:58:04.890Z,15.54
2023-05-04T11:03:04.909Z,15.59
2023-05-04T11:08:04.755Z,15.68
2023-05-04T11:13:05.917Z,15.18
2023-05-04T11:18:04.687Z,15.57
2023-05-04T11:23:04.548Z,15.61
2023-05-04T11:28:04.513Z,15.90
2023-05-04T11:33:04.484Z,15.31
2023-05-04T11:38:04.373Z,15.45
2023-05-04T11:43:04.333Z,15.41
2023-05-04T11:48:04.294Z,15.54
2023-05-04T11:53:04.182Z,15.69
2023-05-04T11:58:04.098Z,15.55
2023-05-04T12:03:04.063Z,15.60
2023-05-04T12:08:04.021Z,15.75
2023-05-04T12:13:03.974Z,15.72
2023-05-04T12:18:03.905Z,15.71
2023-05-04T12:23:03.820Z,15.64
2023-05-04T12:28:03.768Z,16.20
2023-05-04T12:33:03.706Z,16.46
2023-05-04T12:38:03.594Z,16.87
2023-05-04T12:43:03.598Z,17.06
2023-05-04T12:48:03.579Z,17.10
2023-05-04T12:53:03.392Z,17.17
2023-05-04T12:58:03.332Z,17.40
2023-05-04T13:03:03.313Z,17.60
2023-05-04T13:08:03.207Z,17.65
2023-05-04T13:13:03.179Z,17.76
2023-05-04T13:18:03.211Z,17.90
2023-05-04T13:23:03.012Z,17.97
2023-05-04T13:28:02.947Z,18.17
2023-05-04T13:33:10.240Z,18.43
2023-05-04T13:38:03.862Z,18.81
2023-05-04T13:43:02.753Z,19.00
2023-05-04T13:48:02.735Z,19.06
2023-05-04T13:53:02.625Z,19.13
2023-05-04T13:58:02.566Z,19.59
2023-05-04T14:03:02.571Z,19.54
2023-05-04T14:08:02.431Z,19.40
2023-05-04T14:13:02.366Z,19.54
2023-05-04T14:18:03.459Z,20.05
2023-05-04T14:23:02.211Z,20.12
2023-05-04T14:28:02.219Z,20.05
2023-05-04T14:33:02.211Z,20.71
2023-05-04T14:38:02.012Z,20.87
2023-05-04T14:43:01.943Z,20.80
2023-05-04T14:48:01.938Z,20.70
2023-05-04T14:53:01.860Z,20.71
2023-05-04T14:58:01.793Z,20.61
2023-05-04T15:03:01.827Z,20.71
2023-05-04T15:08:01.733Z,20.89
2023-05-04T15:13:01.583Z,21.19
2023-05-04T15:18:01.707Z,21.68
2023-05-04T15:23:01.419Z,22.13
2023-05-04T15:28:01.433Z,21.78
2023-05-04T15:33:01.351Z,21.51
2023-05-04T15:38:01.254Z,21.47
2023-05-04T15:43:01.434Z,21.53
2023-05-04T15:48:01.303Z,21.59
2023-05-04T15:53:01.017Z,21.78
2023-05-04T15:58:01.094Z,21.96
2023-05-04T16:03:00.978Z,21.84
2023-05-04T16:08:00.990Z,22.15
2023-05-04T16:13:01.104Z,22.36
2023-05-04T16:18:00.782Z,22.55
2023-05-04T16:23:00.688Z,22.74
2023-05-04T16:28:00.588Z,23.00
2023-05-04T16:33:00.613Z,23.26
2023-05-04T16:38:00.461Z,23.28
2023-05-04T16:43:00.414Z,23.24
2023-05-04T16:48:00.374Z,23.26
2023-05-04T16:53:00.265Z,23.33
2023-05-04T16:58:00.176Z,23.49
2023-05-04T17:03:00.258Z,23.56
2023-05-04T17:08:00.102Z,23.72
2023-05-04T17:13:02.269Z,23.68
2023-05-04T17:17:59.991Z,23.74
2023-05-04T17:22:59.911Z,23.88
2023-05-04T17:27:59.803Z,24.41
2023-05-04T17:32:59.776Z,24.82
2023-05-04T17:37:59.659Z,25.14
2023-05-04T17:42:59.620Z,25.45
2023-05-04T17:47:59.579Z,25.74
2023-05-04T17:52:59.492Z,25.95
2023-05-04T17:57:59.401Z,25.97
2023-05-04T18:02:59.417Z,26.30
2023-05-04T18:07:59.274Z,26.59
2023-05-04T18:12:59.246Z,26.85
2023-05-04T18:17:59.164Z,26.77
2023-05-04T18:22:59.083Z,27.05
2023-05-04T18:27:59.021Z,27.35
2023-05-04T18:32:59.045Z,27.59
2023-05-04T18:37:58.882Z,27.75
2023-05-04T18:42:58.783Z,27.95
2023-05-04T18:47:58.773Z,28.13
2023-05-04T18:52:58.731Z,28.29
2023-05-04T18:57:58.643Z,28.46
2023-05-04T19:02:58.629Z,28.61
2023-05-04T19:07:58.528Z,28.79
2023-05-04T19:12:58.504Z,29.03
2023-05-04T19:17:58.404Z,29.12
2023-05-04T19:22:58.344Z,29.26
2023-05-04T19:27:58.689Z,29.39
2023-05-04T19:32:58.239Z,29.52
2023-05-04T19:37:58.137Z,29.70
2023-05-04T19:42:58.069Z,30.00
2023-05-04T19:47:58.079Z,30.17
2023-05-04T19:52:57.924Z,30.52
2023-05-04T19:57:57.842Z,30.71
2023-05-04T20:02:57.787Z,30.81
2023-05-04T20:07:57.697Z,30.91
2023-05-04T20:12:57.665Z,31.01
2023-05-04T20:17:57.594Z,31.21
2023-05-04T20:22:57.501Z,31.50
2023-05-04T20:27:57.411Z,31.86
2023-05-04T20:32:57.391Z,32.25
2023-05-04T20:37:57.304Z,32.59
2023-05-04T20:42:57.250Z,32.95
2023-05-04T20:47:57.193Z,33.31
2023-05-04T20:52:57.135Z,33.60
2023-05-04T20:57:57.005Z,33.82
2023-05-04T21:02:57.085Z,33.98
2023-05-04T21:07:56.938Z,34.16
2023-05-04T21:12:56.902Z,34.34
2023-05-04T21:17:56.763Z,34.63
2023-05-04T21:22:56.697Z,34.86
2023-05-04T21:27:56.627Z,35.03
2023-05-04T21:32:56.624Z,35.22
2023-05-04T21:37:56.476Z,35.42
2023-05-04T21:42:56.430Z,35.64
2023-05-04T21:47:56.438Z,35.84
2023-05-04T21:52:56.303Z,36.04
2023-05-04T21:57:56.212Z,36.19
2023-05-04T22:02:56.185Z,36.31
2023-05-04T22:07:56.077Z,36.42
2023-05-04T22:12:56.039Z,36.50
2023-05-04T22:17:55.976Z,36.69
2023-05-04T22:22:55.894Z,36.87
2023-05-04T22:27:55.818Z,37.03
2023-05-04T22:32:55.752Z,37.11
2023-05-04T22:37:55.687Z,37.19
2023-05-04T22:42:55.595Z,37.25
2023-05-04T22:47:55.595Z,37.39
2023-05-04T22:52:55.561Z,37.55
2023-05-04T22:57:55.421Z,37.75
2023-05-04T23:02:55.486Z,37.96
2023-05-04T23:07:55.288Z,38.14
2023-05-04T23:12:55.248Z,38.27
2023-05-04T23:17:55.152Z,38.47
2023-05-04T23:22:55.090Z,38.75
2023-05-04T23:27:55.012Z,38.99
2023-05-04T23:32:55.064Z,39.26
2023-05-04T23:37:54.906Z,39.42
2023-05-04T23:42:54.822Z,39.61
2023-05-04T23:47:54.830Z,39.81
2023-05-04T23:52:54.679Z,40.02
2023-05-04T23:57:54.630Z,40.22
